createdAt,value
2018-12-13T00:00:17.111Z,1.64
2018-12-13T00:02:45.470Z,1.34
2018-12-13T00:05:14.326Z,1.16
2018-12-13T00:07:42.936Z,1.23
2018-12-13T00:10:11.426Z,1.23
2018-12-13T00:12:39.914Z,1.30
2018-12-13T00:15:08.593Z,1.29
2018-12-13T00:17:37.520Z,1.17
2018-12-13T00:20:06.472Z,1.26
2018-12-13T00:22:34.869Z,1.37
2018-12-13T00:25:03.102Z,1.45
2018-12-13T00:27:31.749Z,1.52
2018-12-13T00:30:00.064Z,1.64
2018-12-13T00:32:28.403Z,1.61
2018-12-13T00:34:56.899Z,1.61
2018-12-13T00:37:25.379Z,1.57
2018-12-13T00:39:53.958Z,1.57
2018-12-13T00:42:22.561Z,1.46
2018-12-13T00:44:50.843Z,1.46
2018-12-13T00:47:19.334Z,1.43
2018-12-13T00:49:47.798Z,1.43
2018-12-13T00:52:16.063Z,1.33
2018-12-13T00:54:44.441Z,1.31
2018-12-13T00:57:12.700Z,1.20
2018-12-13T00:59:41.208Z,1.16
2018-12-13T01:02:09.630Z,1.11
2018-12-13T01:04:38.665Z,1.10
2018-12-13T01:07:06.926Z,1.05
2018-12-13T01:09:35.208Z,0.85
2018-12-13T01:12:03.567Z,0.83
2018-12-13T01:14:31.994Z,0.77
2018-12-13T01:17:00.378Z,0.73
2018-12-13T01:19:28.656Z,0.85
2018-12-13T01:21:57.222Z,0.76
2018-12-13T01:24:25.562Z,0.76
2018-12-13T01:26:54.172Z,0.75
2018-12-13T01:29:22.794Z,0.92
2018-12-13T01:31:51.136Z,0.90
2018-12-13T01:34:19.606Z,0.87
2018-12-13T01:36:52.420Z,1.11
2018-12-13T01:39:18.503Z,0.88
2018-12-13T01:41:46.991Z,0.95
2018-12-13T01:44:15.315Z,1.14
2018-12-13T01:46:44.544Z,1.38
2018-12-13T01:49:13.025Z,1.30
2018-12-13T01:51:41.295Z,1.27
2018-12-13T01:54:09.477Z,1.28
2018-12-13T01:56:37.925Z,1.00
2018-12-13T01:59:06.280Z,0.96
2018-12-13T02:01:34.571Z,0.89
2018-12-13T02:04:02.893Z,0.82
2018-12-13T02:06:34.529Z,0.90
2018-12-13T02:09:04.551Z,0.96
2018-12-13T02:11:33.051Z,1.05
2018-12-13T02:14:01.852Z,0.91
2018-12-13T02:16:30.201Z,0.86
2018-12-13T02:18:58.685Z,0.76
2018-12-13T02:21:27.235Z,0.60
2018-12-13T02:23:55.680Z,0.61
2018-12-13T02:26:24.052Z,0.63
2018-12-13T02:28:52.533Z,0.55
2018-12-13T02:31:21.021Z,0.87
2018-12-13T02:33:49.434Z,1.16
2018-12-13T02:36:17.976Z,1.03
2018-12-13T02:38:46.250Z,0.99
2018-12-13T02:41:14.612Z,0.92
2018-12-13T02:43:42.968Z,0.98
2018-12-13T02:46:11.361Z,1.05
2018-12-13T02:48:39.764Z,1.03
2018-12-13T02:51:08.023Z,1.11
2018-12-13T02:53:36.539Z,1.18
2018-12-13T02:56:04.894Z,1.11
2018-12-13T02:58:33.298Z,0.96
2018-12-13T03:01:01.772Z,1.10
2018-12-13T03:03:30.084Z,0.89
2018-12-13T03:05:58.469Z,0.98
2018-12-13T03:08:27.240Z,1.02
2018-12-13T03:10:55.971Z,1.10
2018-12-13T03:13:24.442Z,0.96
2018-12-13T03:15:52.907Z,0.93
2018-12-13T03:18:21.406Z,1.12
2018-12-13T03:20:49.825Z,1.16
2018-12-13T03:23:18.193Z,1.06
2018-12-13T03:25:46.876Z,0.85
2018-12-13T03:28:15.156Z,0.80
2018-12-13T03:30:43.493Z,0.99
2018-12-13T03:33:11.966Z,1.12
2018-12-13T03:35:40.489Z,1.04
2018-12-13T03:38:08.770Z,1.05
2018-12-13T03:40:37.519Z,1.18
2018-12-13T03:43:05.938Z,0.94
2018-12-13T03:45:34.348Z,0.90
2018-12-13T03:48:03.026Z,0.87
2018-12-13T03:50:32.299Z,0.93
2018-12-13T03:53:00.797Z,0.95
2018-12-13T03:55:29.712Z,0.85
2018-12-13T03:57:58.578Z,0.78
2018-12-13T04:00:27.071Z,0.86
2018-12-13T04:02:55.736Z,0.78
2018-12-13T04:05:24.530Z,1.05
2018-12-13T04:07:53.346Z,1.17
2018-12-13T04:10:22.027Z,1.03
2018-12-13T04:12:50.347Z,0.83
2018-12-13T04:15:18.747Z,0.50
2018-12-13T04:17:47.568Z,0.56
2018-12-13T04:20:16.302Z,0.69
2018-12-13T04:22:45.094Z,0.85
2018-12-13T04:25:13.606Z,0.85
2018-12-13T04:27:42.172Z,0.48
2018-12-13T04:30:10.878Z,0.18
2018-12-13T04:32:39.253Z,-0.10
2018-12-13T04:35:07.536Z,-0.29
2018-12-13T04:37:35.969Z,-0.39
2018-12-13T04:40:04.689Z,-0.58
2018-12-13T04:42:33.275Z,-0.62
2018-12-13T04:45:01.896Z,-0.66
2018-12-13T04:47:30.522Z,-0.84
2018-12-13T04:49:58.908Z,-0.91
2018-12-13T04:52:27.925Z,-0.98
2018-12-13T04:54:56.410Z,-0.95
2018-12-13T04:57:24.928Z,-0.95
2018-12-13T04:59:55.040Z,-1.07
2018-12-13T05:02:23.445Z,-0.95
2018-12-13T05:04:51.756Z,-1.04
2018-12-13T05:07:20.216Z,-1.06
2018-12-13T05:09:48.574Z,-1.12
2018-12-13T05:12:17.025Z,-1.10
2018-12-13T05:14:45.515Z,-1.31
2018-12-13T05:17:14.516Z,-1.41
2018-12-13T05:19:42.880Z,-1.45
2018-12-13T05:22:11.993Z,-1.18
2018-12-13T05:24:40.461Z,-1.42
2018-12-13T05:27:08.989Z,-1.16
2018-12-13T05:29:37.595Z,-1.45
2018-12-13T05:32:06.161Z,-1.58
2018-12-13T05:34:34.715Z,-1.50
2018-12-13T05:37:03.259Z,-1.38
2018-12-13T05:39:31.669Z,-1.08
2018-12-13T05:41:59.968Z,-1.27
2018-12-13T05:44:28.416Z,-1.33
2018-12-13T05:46:57.085Z,-1.39
2018-12-13T05:49:25.706Z,-1.51
2018-12-13T05:51:54.355Z,-1.17
2018-12-13T05:54:23.040Z,-0.73
2018-12-13T05:56:51.526Z,-0.47
2018-12-13T05:59:19.879Z,-0.62
2018-12-13T06:01:49.186Z,-0.60
2018-12-13T06:04:17.484Z,-0.55
2018-12-13T06:06:45.972Z,-0.54
2018-12-13T06:09:14.293Z,-0.48
2018-12-13T06:11:42.796Z,-0.44
2018-12-13T06:14:11.110Z,-0.34
2018-12-13T06:16:39.472Z,0.21
2018-12-13T06:19:07.907Z,0.29
2018-12-13T06:21:36.966Z,-0.30
2018-12-13T06:24:05.709Z,-0.53
2018-12-13T06:26:34.322Z,-0.33
2018-12-13T06:29:02.975Z,-0.03
2018-12-13T06:31:31.404Z,0.00
2018-12-13T06:33:59.768Z,0.37
2018-12-13T06:36:28.191Z,0.73
2018-12-13T06:38:56.671Z,0.50
2018-12-13T06:41:25.339Z,0.46
2018-12-13T06:43:54.419Z,0.41
2018-12-13T06:46:24.144Z,-0.02
2018-12-13T06:48:53.572Z,0.06
2018-12-13T06:51:23.295Z,0.06
2018-12-13T06:53:51.844Z,0.06
2018-12-13T06:56:20.234Z,0.23
2018-12-13T06:58:48.876Z,0.34
2018-12-13T07:01:17.455Z,0.67
2018-12-13T07:03:45.864Z,0.88
2018-12-13T07:06:14.438Z,0.87
2018-12-13T07:08:42.818Z,0.82
2018-12-13T07:11:11.328Z,0.85
2018-12-13T07:13:39.862Z,0.83
2018-12-13T07:16:08.419Z,0.77
2018-12-13T07:18:37.092Z,0.96
2018-12-13T07:21:06.140Z,1.18
2018-12-13T07:23:34.659Z,1.31
2018-12-13T07:26:04.058Z,1.14
2018-12-13T07:28:32.719Z,1.11
2018-12-13T07:31:01.031Z,0.91
2018-12-13T07:33:29.542Z,0.88
2018-12-13T07:35:57.974Z,0.96
2018-12-13T07:38:26.550Z,1.26
2018-12-13T07:40:55.184Z,1.18
2018-12-13T07:43:23.870Z,1.29
2018-12-13T07:45:52.322Z,1.43
2018-12-13T07:48:23.996Z,1.46
2018-12-13T07:50:52.643Z,1.67
2018-12-13T07:53:20.957Z,1.76
2018-12-13T07:55:49.918Z,2.00
2018-12-13T07:58:18.377Z,2.00
2018-12-13T08:00:46.683Z,1.91
2018-12-13T08:03:15.643Z,1.75
2018-12-13T08:05:44.710Z,2.06
2018-12-13T08:08:13.184Z,2.26
2018-12-13T08:10:41.674Z,2.55
2018-12-13T08:13:10.571Z,2.24
2018-12-13T08:15:38.953Z,2.44
2018-12-13T08:18:07.614Z,2.36
2018-12-13T08:20:36.154Z,2.46
2018-12-13T08:23:04.544Z,2.66
2018-12-13T08:25:33.268Z,2.93
2018-12-13T08:28:02.351Z,2.98
2018-12-13T08:30:30.918Z,2.94
2018-12-13T08:32:59.409Z,2.93
2018-12-13T08:35:27.824Z,2.86
2018-12-13T08:37:56.327Z,2.85
2018-12-13T08:40:24.726Z,2.86
2018-12-13T08:42:53.448Z,2.83
2018-12-13T08:45:21.807Z,2.75
2018-12-13T08:47:50.384Z,2.72
2018-12-13T08:50:18.910Z,2.73
2018-12-13T08:52:47.684Z,2.79
2018-12-13T08:55:16.215Z,2.91
2018-12-13T08:57:44.648Z,3.19
2018-12-13T09:00:13.263Z,3.42
2018-12-13T09:02:41.749Z,3.44
2018-12-13T09:05:11.136Z,3.43
2018-12-13T09:07:40.861Z,3.37
2018-12-13T09:10:10.434Z,3.37
2018-12-13T09:12:39.302Z,3.38
2018-12-13T09:15:07.999Z,3.43
2018-12-13T09:17:36.895Z,3.41
2018-12-13T09:20:05.964Z,3.38
2018-12-13T09:22:34.457Z,3.43
2018-12-13T09:25:03.252Z,3.56
2018-12-13T09:27:31.916Z,3.83
2018-12-13T09:30:01.163Z,3.74
2018-12-13T09:32:30.551Z,3.94
2018-12-13T09:34:59.267Z,3.93
2018-12-13T09:37:28.072Z,4.00
2018-12-13T09:39:56.843Z,4.08
2018-12-13T09:42:25.745Z,4.11
2018-12-13T09:44:54.564Z,4.13
2018-12-13T09:47:23.237Z,4.14
2018-12-13T09:49:51.743Z,4.18
2018-12-13T09:52:20.387Z,4.40
2018-12-13T09:54:48.837Z,4.33
2018-12-13T09:57:17.251Z,4.34
2018-12-13T09:59:45.561Z,4.30
2018-12-13T10:02:13.880Z,4.39
2018-12-13T10:04:42.376Z,4.35
2018-12-13T10:07:10.736Z,4.32
2018-12-13T10:09:39.168Z,4.27
2018-12-13T10:12:07.540Z,4.27
2018-12-13T10:14:36.001Z,4.06
2018-12-13T10:17:04.427Z,4.14
2018-12-13T10:19:33.134Z,4.15
2018-12-13T10:22:01.595Z,4.43
2018-12-13T10:24:30.229Z,4.47
2018-12-13T10:26:58.668Z,4.41
2018-12-13T10:29:27.004Z,4.53
2018-12-13T10:31:57.130Z,4.61
2018-12-13T10:34:28.734Z,4.48
2018-12-13T10:36:57.105Z,4.81
2018-12-13T10:39:25.722Z,5.06
2018-12-13T10:41:54.265Z,5.51
2018-12-13T10:44:28.416Z,5.80
2018-12-13T10:46:59.274Z,5.78
2018-12-13T10:49:28.027Z,5.35
2018-12-13T10:51:56.511Z,5.58
2018-12-13T10:54:25.074Z,5.50
2018-12-13T10:56:53.907Z,5.43
2018-12-13T10:59:22.424Z,5.47
2018-12-13T11:01:56.167Z,5.52
2018-12-13T11:04:24.899Z,5.48
2018-12-13T11:06:53.660Z,5.57
2018-12-13T11:09:22.046Z,5.38
2018-12-13T11:11:51.331Z,5.70
2018-12-13T11:14:19.844Z,5.75
2018-12-13T11:16:48.443Z,5.84
2018-12-13T11:19:19.014Z,6.21
2018-12-13T11:21:47.855Z,5.98
2018-12-13T11:24:16.427Z,5.88
2018-12-13T11:26:45.360Z,5.93
2018-12-13T11:29:28.011Z,5.60
2018-12-13T11:31:56.520Z,5.55
2018-12-13T11:34:25.547Z,5.87
2018-12-13T11:36:54.319Z,5.73
2018-12-13T11:39:23.281Z,5.65
2018-12-13T11:41:51.739Z,5.65
2018-12-13T11:44:20.265Z,5.33
2018-12-13T11:46:48.858Z,5.12
2018-12-13T11:49:17.273Z,5.18
2018-12-13T11:51:46.602Z,5.04
2018-12-13T11:54:48.162Z,4.99
2018-12-13T11:57:17.186Z,4.84
2018-12-13T11:59:48.865Z,4.70
2018-12-13T12:02:23.733Z,4.74
2018-12-13T12:04:48.617Z,5.00
2018-12-13T12:07:19.789Z,4.98
2018-12-13T12:09:48.305Z,5.08
2018-12-13T12:12:16.545Z,4.85
2018-12-13T12:14:44.975Z,4.80
2018-12-13T12:17:14.040Z,4.63
2018-12-13T12:19:42.713Z,4.50
2018-12-13T12:22:11.195Z,4.49
2018-12-13T12:24:40.318Z,4.56
2018-12-13T12:27:08.705Z,4.75
2018-12-13T12:29:37.006Z,4.70
2018-12-13T12:32:06.011Z,4.54
2018-12-13T12:34:35.447Z,4.47
2018-12-13T12:37:03.876Z,4.58
2018-12-13T12:39:32.214Z,4.48
2018-12-13T12:42:01.982Z,4.59
2018-12-13T12:44:34.534Z,4.58
2018-12-13T12:47:03.051Z,4.50
2018-12-13T12:49:31.446Z,4.67
2018-12-13T12:51:59.903Z,5.12
2018-12-13T12:54:29.632Z,4.95
2018-12-13T12:56:57.932Z,5.17
2018-12-13T12:59:26.300Z,5.05
2018-12-13T13:01:54.915Z,5.39
2018-12-13T13:04:23.504Z,5.75
2018-12-13T13:06:51.919Z,5.66
2018-12-13T13:09:24.964Z,5.60
2018-12-13T13:11:54.319Z,5.57
2018-12-13T13:14:22.605Z,5.66
2018-12-13T13:16:50.934Z,5.62
2018-12-13T13:19:19.510Z,5.51
2018-12-13T13:21:47.932Z,5.40
2018-12-13T13:24:17.670Z,5.15
2018-12-13T13:26:46.867Z,4.93
2018-12-13T13:29:15.219Z,4.78
2018-12-13T13:31:43.853Z,4.94
2018-12-13T13:34:12.827Z,5.00
2018-12-13T13:36:43.075Z,5.15
2018-12-13T13:39:11.673Z,5.19
2018-12-13T13:41:40.773Z,5.55
2018-12-13T13:44:09.872Z,5.38
2018-12-13T13:46:38.638Z,5.36
2018-12-13T13:49:07.350Z,5.43
2018-12-13T13:51:35.584Z,5.11
2018-12-13T13:54:04.442Z,5.08
2018-12-13T13:56:39.357Z,4.88
2018-12-13T13:59:07.552Z,4.97
2018-12-13T14:01:35.978Z,4.99
2018-12-13T14:04:04.623Z,5.10
2018-12-13T14:06:33.173Z,5.10
2018-12-13T14:09:01.568Z,4.88
2018-12-13T14:11:30.087Z,4.75
2018-12-13T14:13:58.605Z,4.54
2018-12-13T14:16:27.045Z,4.47
2018-12-13T14:18:55.675Z,4.58
2018-12-13T14:21:24.685Z,4.43
2018-12-13T14:23:53.250Z,4.33
2018-12-13T14:26:21.463Z,4.37
2018-12-13T14:28:49.819Z,4.35
2018-12-13T14:31:18.058Z,4.40
2018-12-13T14:33:46.578Z,4.52
2018-12-13T14:36:15.051Z,4.72
2018-12-13T14:38:43.996Z,4.68
2018-12-13T14:41:13.910Z,4.69
2018-12-13T14:43:43.308Z,4.71
2018-12-13T14:46:11.718Z,4.70
2018-12-13T14:48:40.290Z,4.43
2018-12-13T14:51:08.691Z,4.38
2018-12-13T14:53:37.286Z,4.18
2018-12-13T14:56:05.762Z,4.20
2018-12-13T14:58:34.896Z,4.14
2018-12-13T15:01:03.457Z,4.15
2018-12-13T15:03:31.667Z,4.10
2018-12-13T15:06:00.217Z,4.09
2018-12-13T15:08:28.787Z,4.17
2018-12-13T15:10:57.118Z,4.43
2018-12-13T15:13:25.560Z,4.53
2018-12-13T15:15:53.895Z,4.47
2018-12-13T15:18:22.469Z,4.52
2018-12-13T15:20:51.244Z,4.65
2018-12-13T15:23:20.849Z,4.63
2018-12-13T15:25:52.058Z,4.64
2018-12-13T15:28:20.944Z,4.64
2018-12-13T15:30:49.847Z,4.50
2018-12-13T15:33:18.296Z,4.44
2018-12-13T15:35:46.607Z,4.45
2018-12-13T15:38:14.971Z,4.61
2018-12-13T15:40:43.499Z,4.50
2018-12-13T15:43:12.550Z,4.60
2018-12-13T15:45:41.188Z,4.59
2018-12-13T15:48:09.737Z,4.60
2018-12-13T15:50:38.199Z,4.63
2018-12-13T15:53:06.534Z,4.36
2018-12-13T15:55:34.787Z,4.18
2018-12-13T15:58:03.285Z,3.93
2018-12-13T16:00:31.801Z,3.64
2018-12-13T16:03:00.411Z,3.57
2018-12-13T16:05:28.897Z,3.29
2018-12-13T16:07:57.303Z,3.36
2018-12-13T16:10:25.744Z,3.49
2018-12-13T16:12:54.443Z,3.58
2018-12-13T16:15:22.810Z,3.43
2018-12-13T16:17:51.152Z,3.47
2018-12-13T16:20:19.575Z,3.61
2018-12-13T16:22:48.383Z,3.64
2018-12-13T16:25:17.086Z,3.65
2018-12-13T16:27:45.568Z,3.72
2018-12-13T16:30:14.443Z,3.79
2018-12-13T16:32:43.219Z,3.59
2018-12-13T16:35:11.556Z,3.63
2018-12-13T16:37:40.685Z,3.75
2018-12-13T16:40:10.416Z,3.92
2018-12-13T16:42:39.489Z,3.86
2018-12-13T16:45:16.119Z,3.91
2018-12-13T16:47:45.154Z,3.99
2018-12-13T16:50:13.506Z,3.63
2018-12-13T16:52:41.841Z,3.51
2018-12-13T16:55:10.144Z,3.54
2018-12-13T16:57:38.466Z,3.46
2018-12-13T17:00:08.047Z,3.51
2018-12-13T17:02:39.810Z,3.70
2018-12-13T17:05:08.388Z,3.73
2018-12-13T17:07:36.927Z,3.84
2018-12-13T17:10:06.440Z,3.96
2018-12-13T17:12:35.290Z,3.64
2018-12-13T17:15:04.366Z,3.57
2018-12-13T17:17:35.393Z,3.59
2018-12-13T17:20:04.567Z,3.59
2018-12-13T17:22:32.973Z,3.55
2018-12-13T17:25:01.193Z,3.81
2018-12-13T17:27:29.720Z,3.64
2018-12-13T17:29:58.172Z,3.33
2018-12-13T17:32:26.582Z,3.27
2018-12-13T17:34:55.129Z,3.35
2018-12-13T17:37:23.612Z,3.29
2018-12-13T17:39:52.017Z,3.32
2018-12-13T17:42:21.273Z,3.18
2018-12-13T17:44:52.058Z,3.31
2018-12-13T17:47:20.812Z,3.32
2018-12-13T17:49:50.007Z,3.39
2018-12-13T17:52:19.886Z,3.14
2018-12-13T17:57:32.727Z,3.35
2018-12-13T18:00:02.095Z,3.35
2018-12-13T18:02:30.420Z,3.21
2018-12-13T18:04:58.994Z,3.21
2018-12-13T18:07:27.630Z,3.17
2018-12-13T18:09:56.250Z,3.41
2018-12-13T18:12:25.574Z,3.43
2018-12-13T18:14:54.137Z,3.46
2018-12-13T18:17:22.619Z,3.47
2018-12-13T18:19:52.912Z,3.32
2018-12-13T18:22:21.523Z,3.21
2018-12-13T18:24:50.079Z,3.03
2018-12-13T18:27:19.201Z,2.71
2018-12-13T18:29:47.724Z,2.68
2018-12-13T18:32:16.743Z,2.67
2018-12-13T18:34:45.315Z,2.56
2018-12-13T18:37:14.987Z,2.34
2018-12-13T18:39:43.435Z,2.22
2018-12-13T18:42:11.805Z,2.14
2018-12-13T18:44:40.013Z,2.04
2018-12-13T18:47:09.353Z,2.02
2018-12-13T18:49:37.913Z,1.99
2018-12-13T18:52:06.280Z,2.12
2018-12-13T18:54:34.712Z,2.14
2018-12-13T18:57:03.244Z,2.22
2018-12-13T18:59:31.902Z,2.16
2018-12-13T19:02:00.647Z,2.07
2018-12-13T19:04:29.294Z,2.33
2018-12-13T19:06:57.743Z,2.11
2018-12-13T19:09:26.284Z,2.22
2018-12-13T19:11:54.554Z,2.17
2018-12-13T19:14:22.817Z,2.53
2018-12-13T19:16:51.168Z,2.80
2018-12-13T19:19:19.917Z,2.87
2018-12-13T19:21:48.523Z,2.84
2018-12-13T19:24:16.845Z,2.84
2018-12-13T19:26:45.233Z,2.98
2018-12-13T19:29:14.568Z,3.03
2018-12-13T19:31:42.861Z,2.99
2018-12-13T19:34:11.302Z,3.00
2018-12-13T19:36:39.816Z,3.22
2018-12-13T19:39:09.224Z,3.30
2018-12-13T19:41:37.802Z,3.57
2018-12-13T19:44:06.137Z,3.68
2018-12-13T19:46:34.769Z,3.86
2018-12-13T19:49:03.471Z,3.62
2018-12-13T19:51:32.414Z,3.55
2018-12-13T19:54:00.857Z,3.61
2018-12-13T19:56:29.263Z,3.54
2018-12-13T19:59:00.016Z,3.49
2018-12-13T20:01:32.210Z,3.09
2018-12-13T20:04:00.543Z,2.87
2018-12-13T20:06:29.085Z,2.96
2018-12-13T20:08:57.409Z,2.79
2018-12-13T20:11:25.869Z,2.78
2018-12-13T20:13:54.391Z,2.85
2018-12-13T20:16:23.849Z,2.70
2018-12-13T20:18:52.595Z,2.70
2018-12-13T20:21:20.941Z,2.71
2018-12-13T20:23:50.339Z,2.62
2018-12-13T20:26:19.247Z,2.37
2018-12-13T20:28:48.062Z,2.29
2018-12-13T20:31:16.419Z,2.24
2018-12-13T20:33:44.894Z,2.30
2018-12-13T20:36:13.551Z,2.17
2018-12-13T20:38:42.097Z,2.18
2018-12-13T20:41:10.431Z,1.99
2018-12-13T20:43:38.768Z,2.17
2018-12-13T20:46:07.007Z,1.99
2018-12-13T20:48:35.308Z,2.33
2018-12-13T20:51:03.752Z,2.13
2018-12-13T20:53:32.027Z,2.33
2018-12-13T20:56:00.593Z,2.29
2018-12-13T20:58:28.925Z,2.13
2018-12-13T21:00:57.220Z,2.15
2018-12-13T21:03:25.654Z,2.01
2018-12-13T21:05:54.053Z,2.00
2018-12-13T21:08:22.503Z,2.21
2018-12-13T21:10:51.024Z,2.04
2018-12-13T21:13:20.015Z,2.15
2018-12-13T21:15:48.657Z,2.08
2018-12-13T21:18:17.115Z,2.09
2018-12-13T21:20:45.674Z,2.36
2018-12-13T21:23:14.271Z,2.30
2018-12-13T21:25:42.792Z,2.13
2018-12-13T21:28:11.234Z,2.36
2018-12-13T21:30:39.818Z,2.54
2018-12-13T21:33:08.098Z,2.33
2018-12-13T21:35:36.359Z,2.46
2018-12-13T21:38:04.750Z,2.50
2018-12-13T21:40:33.077Z,2.51
2018-12-13T21:43:01.421Z,2.57
2018-12-13T21:45:29.796Z,2.60
2018-12-13T21:47:57.976Z,2.58
2018-12-13T21:50:26.614Z,2.39
2018-12-13T21:52:55.107Z,2.46
2018-12-13T21:55:23.448Z,2.83
2018-12-13T21:57:51.740Z,2.65
2018-12-13T22:00:20.537Z,2.72
2018-12-13T22:02:48.895Z,3.01
2018-12-13T22:05:17.504Z,2.87
2018-12-13T22:07:45.961Z,2.90
2018-12-13T22:10:14.259Z,2.78
2018-12-13T22:12:42.627Z,2.64
2018-12-13T22:15:12.301Z,2.42
2018-12-13T22:17:40.927Z,2.59
2018-12-13T22:20:09.793Z,2.72
2018-12-13T22:22:38.207Z,2.84
2018-12-13T22:25:07.804Z,2.79
2018-12-13T22:27:36.231Z,2.84
2018-12-13T22:30:05.746Z,3.00
2018-12-13T22:32:34.236Z,3.01
2018-12-13T22:35:02.633Z,3.12
2018-12-13T22:37:31.031Z,3.23
2018-12-13T22:39:59.333Z,3.21
2018-12-13T22:42:28.625Z,3.34
2018-12-13T22:44:57.065Z,3.67
2018-12-13T22:47:25.702Z,3.28
2018-12-13T22:49:54.173Z,3.33
2018-12-13T22:52:22.462Z,3.35
2018-12-13T22:54:50.847Z,3.13
2018-12-13T22:57:19.260Z,3.17
2018-12-13T22:59:47.628Z,3.29
2018-12-13T23:02:16.125Z,3.10
2018-12-13T23:04:44.650Z,2.95
2018-12-13T23:07:13.292Z,3.04
2018-12-13T23:09:41.909Z,3.23
2018-12-13T23:12:10.541Z,2.96
2018-12-13T23:14:38.815Z,2.92
2018-12-13T23:17:07.570Z,2.95
2018-12-13T23:19:36.026Z,2.97
2018-12-13T23:22:04.340Z,3.10
2018-12-13T23:24:32.693Z,3.23
2018-12-13T23:27:01.112Z,3.14
2018-12-13T23:29:29.369Z,3.21
2018-12-13T23:31:57.605Z,3.25
2018-12-13T23:34:26.122Z,3.16
2018-12-13T23:36:54.547Z,3.19
2018-12-13T23:39:22.802Z,3.31
2018-12-13T23:41:51.057Z,3.17
2018-12-13T23:44:19.415Z,3.02
2018-12-13T23:46:47.643Z,2.86
2018-12-13T23:49:16.004Z,2.90
2018-12-13T23:51:44.299Z,3.07
2018-12-13T23:54:12.772Z,3.14
2018-12-13T23:56:41.783Z,3.20
2018-12-13T23:59:10.362Z,3.20
